sensor_id;sensor_type;location;lat;lon;timestamp;P1;durP1;ratioP1;P2;durP2;ratioP2
1999;SDS011;1001;48.87406500;9.59633600;2022-08-18T00:02:03;14.13;;;12.43;;
1999;SDS011;1001;48.87406500;9.59633600;2022-08-18T00:04:32;13.97;;;12.53;;
1999;SDS011;1001;48.87406500;9.59633600;2022-08-18T00:07:03;15.83;;;13.20;;
1999;SDS011;1001;48.87406500;9.59633600;2022-08-18T00:09:33;13.67;;;12.20;;
1999;SDS011;1001;48.87406500;9.59633600;2022-08-18T00:12:02;14.20;;;12.80;;
1999;SDS011;1001;48.87406500;9.59633600;2022-08-18T00:14:31;14.17;;;12.77;;
1999;SDS011;1001;48.87406500;9.59633600;2022-08-18T00:16:58;17.40;;;12.87;;
1999;SDS011;1001;48.87406500;9.59633600;2022-08-18T00:19:25;14.07;;;12.67;;
1999;SDS011;1001;48.87406500;9.59633600;2022-08-18T00:21:52;14.30;;;12.80;;
1999;SDS011;1001;48.87406500;9.59633600;2022-08-18T00:24:19;13.23;;;11.90;;
1999;SDS011;1001;48.87406500;9.59633600;2022-08-18T00:26:47;14.00;;;12.60;;
1999;SDS011;1001;48.87406500;9.59633600;2022-08-18T00:29:14;14.20;;;12.20;;
1999;SDS011;1001;48.87406500;9.59633600;2022-08-18T00:31:40;13.70;;;12.20;;
1999;SDS011;1001;48.87406500;9.59633600;2022-08-18T00:34:07;14.37;;;12.30;;
1999;SDS011;1001;48.87406500;9.59633600;2022-08-18T00:36:34;13.80;;;12.50;;
1999;SDS011;1001;48.87406500;9.59633600;2022-08-18T00:39:02;125.80;;;15.57;;
1999;SDS011;1001;48.87406500;9.59633600;2022-08-18T00:41:29;14.13;;;12.73;;
1999;SDS011;1001;48.87406500;9.59633600;2022-08-18T00:43:57;19.60;;;13.00;;
1999;SDS011;1001;48.87406500;9.59633600;2022-08-18T00:46:25;13.10;;;11.90;;
1999;SDS011;1001;48.87406500;9.59633600;2022-08-18T00:48:54;15.70;;;13.43;;
1999;SDS011;1001;48.87406500;9.59633600;2022-08-18T00:51:22;13.00;;;11.60;;
1999;SDS011;1001;48.87406500;9.59633600;2022-08-18T00:53:55;13.50;;;12.27;;
1999;SDS011;1001;48.87406500;9.59633600;2022-08-18T00:56:26;12.00;;;10.93;;
1999;SDS011;1001;48.87406500;9.59633600;2022-08-18T00:59:00;13.47;;;12.27;;
1999;SDS011;1001;48.87406500;9.59633600;2022-08-18T01:01:32;14.40;;;12.90;;
1999;SDS011;1001;48.87406500;9.59633600;2022-08-18T01:04:01;13.73;;;12.33;;
1999;SDS011;1001;48.87406500;9.59633600;2022-08-18T01:06:34;13.57;;;12.37;;
1999;SDS011;1001;48.87406500;9.59633600;2022-08-18T01:09:04;16.83;;;13.20;;
1999;SDS011;1001;48.87406500;9.59633600;2022-08-18T01:11:32;14.33;;;12.97;;
1999;SDS011;1001;48.87406500;9.59633600;2022-08-18T01:14:02;12.70;;;11.37;;
1999;SDS011;1001;48.87406500;9.59633600;2022-08-18T01:16:29;13.67;;;12.37;;
1999;SDS011;1001;48.87406500;9.59633600;2022-08-18T01:19:13;12.37;;;11.20;;
1999;SDS011;1001;48.87406500;9.59633600;2022-08-18T01:21:59;13.40;;;12.20;;
1999;SDS011;1001;48.87406500;9.59633600;2022-08-18T01:24:34;15.00;;;11.37;;
1999;SDS011;1001;48.87406500;9.59633600;2022-08-18T01:27:20;15.57;;;11.20;;
1999;SDS011;1001;48.87406500;9.59633600;2022-08-18T01:29:48;10.90;;;9.80;;
1999;SDS011;1001;48.87406500;9.59633600;2022-08-18T01:32:16;14.30;;;10.93;;
1999;SDS011;1001;48.87406500;9.59633600;2022-08-18T01:34:44;17.57;;;13.20;;
1999;SDS011;1001;48.87406500;9.59633600;2022-08-18T01:37:12;14.90;;;13.30;;
1999;SDS011;1001;48.87406500;9.59633600;2022-08-18T01:39:41;14.27;;;12.87;;
1999;SDS011;1001;48.87406500;9.59633600;2022-08-18T01:42:08;17.93;;;14.33;;
1999;SDS011;1001;48.87406500;9.59633600;2022-08-18T01:44:35;16.17;;;14.47;;
1999;SDS011;1001;48.87406500;9.59633600;2022-08-18T01:47:05;18.23;;;14.50;;
1999;SDS011;1001;48.87406500;9.59633600;2022-08-18T01:49:32;15.10;;;13.50;;
1999;SDS011;1001;48.87406500;9.59633600;2022-08-18T01:51:59;14.97;;;13.50;;
1999;SDS011;1001;48.87406500;9.59633600;2022-08-18T01:54:26;15.73;;;14.20;;
1999;SDS011;1001;48.87406500;9.59633600;2022-08-18T01:56:55;252.17;;;27.57;;
1999;SDS011;1001;48.87406500;9.59633600;2022-08-18T01:59:22;43.80;;;14.20;;
1999;SDS011;1001;48.87406500;9.59633600;2022-08-18T02:01:49;27.03;;;13.27;;
1999;SDS011;1001;48.87406500;9.59633600;2022-08-18T02:04:21;27.53;;;14.50;;
1999;SDS011;1001;48.87406500;9.59633600;2022-08-18T02:06:52;34.23;;;14.47;;
1999;SDS011;1001;48.87406500;9.59633600;2022-08-18T02:09:19;58.70;;;13.03;;
1999;SDS011;1001;48.87406500;9.59633600;2022-08-18T02:11:46;69.90;;;16.83;;
1999;SDS011;1001;48.87406500;9.59633600;2022-08-18T02:14:15;19.93;;;12.37;;
1999;SDS011;1001;48.87406500;9.59633600;2022-08-18T02:16:41;31.27;;;13.40;;
1999;SDS011;1001;48.87406500;9.59633600;2022-08-18T02:19:08;50.93;;;17.33;;
1999;SDS011;1001;48.87406500;9.59633600;2022-08-18T02:21:36;30.07;;;15.03;;
1999;SDS011;1001;48.87406500;9.59633600;2022-08-18T02:24:03;15.17;;;13.67;;
1999;SDS011;1001;48.87406500;9.59633600;2022-08-18T02:26:30;17.30;;;14.77;;
1999;SDS011;1001;48.87406500;9.59633600;2022-08-18T02:28:57;15.53;;;13.90;;
1999;SDS011;1001;48.87406500;9.59633600;2022-08-18T02:31:25;15.83;;;14.23;;
1999;SDS011;1001;48.87406500;9.59633600;2022-08-18T02:33:51;15.50;;;13.97;;
1999;SDS011;1001;48.87406500;9.59633600;2022-08-18T02:36:18;15.33;;;13.90;;
1999;SDS011;1001;48.87406500;9.59633600;2022-08-18T02:38:46;14.37;;;13.07;;
1999;SDS011;1001;48.87406500;9.59633600;2022-08-18T02:41:13;14.70;;;13.20;;
1999;SDS011;1001;48.87406500;9.59633600;2022-08-18T02:43:39;15.00;;;13.60;;
1999;SDS011;1001;48.87406500;9.59633600;2022-08-18T02:46:07;15.43;;;13.83;;
1999;SDS011;1001;48.87406500;9.59633600;2022-08-18T02:48:35;13.80;;;12.40;;
1999;SDS011;1001;48.87406500;9.59633600;2022-08-18T02:51:03;15.83;;;13.90;;
1999;SDS011;1001;48.87406500;9.59633600;2022-08-18T02:53:31;17.83;;;14.10;;
1999;SDS011;1001;48.87406500;9.59633600;2022-08-18T02:56:03;19.10;;;15.27;;
1999;SDS011;1001;48.87406500;9.59633600;2022-08-18T02:58:40;16.33;;;14.80;;
1999;SDS011;1001;48.87406500;9.59633600;2022-08-18T03:01:07;15.60;;;13.93;;
1999;SDS011;1001;48.87406500;9.59633600;2022-08-18T03:03:36;16.37;;;14.67;;
1999;SDS011;1001;48.87406500;9.59633600;2022-08-18T03:06:03;16.87;;;15.17;;
1999;SDS011;1001;48.87406500;9.59633600;2022-08-18T03:08:30;25.60;;;16.50;;
1999;SDS011;1001;48.87406500;9.59633600;2022-08-18T03:10:57;53.30;;;16.60;;
1999;SDS011;1001;48.87406500;9.59633600;2022-08-18T03:13:24;39.57;;;17.00;;
1999;SDS011;1001;48.87406500;9.59633600;2022-08-18T03:15:51;71.07;;;21.10;;
1999;SDS011;1001;48.87406500;9.59633600;2022-08-18T03:18:18;91.83;;;20.20;;
1999;SDS011;1001;48.87406500;9.59633600;2022-08-18T03:20:48;69.47;;;21.20;;
1999;SDS011;1001;48.87406500;9.59633600;2022-08-18T03:23:15;33.97;;;16.47;;
1999;SDS011;1001;48.87406500;9.59633600;2022-08-18T03:25:43;22.63;;;15.47;;
1999;SDS011;1001;48.87406500;9.59633600;2022-08-18T03:28:11;17.93;;;16.13;;
1999;SDS011;1001;48.87406500;9.59633600;2022-08-18T03:30:38;17.57;;;14.53;;
1999;SDS011;1001;48.87406500;9.59633600;2022-08-18T03:33:05;15.30;;;13.73;;
1999;SDS011;1001;48.87406500;9.59633600;2022-08-18T03:35:33;13.77;;;12.37;;
1999;SDS011;1001;48.87406500;9.59633600;2022-08-18T03:38:01;11.87;;;10.77;;
1999;SDS011;1001;48.87406500;9.59633600;2022-08-18T03:40:29;11.23;;;9.63;;
1999;SDS011;1001;48.87406500;9.59633600;2022-08-18T03:42:55;9.97;;;9.07;;
1999;SDS011;1001;48.87406500;9.59633600;2022-08-18T03:45:22;10.50;;;9.50;;
1999;SDS011;1001;48.87406500;9.59633600;2022-08-18T03:47:52;10.33;;;9.23;;
1999;SDS011;1001;48.87406500;9.59633600;2022-08-18T03:50:19;10.23;;;9.23;;
1999;SDS011;1001;48.87406500;9.59633600;2022-08-18T03:52:49;11.20;;;10.10;;
1999;SDS011;1001;48.87406500;9.59633600;2022-08-18T03:55:18;9.47;;;8.60;;
1999;SDS011;1001;48.87406500;9.59633600;2022-08-18T03:57:45;9.97;;;9.10;;
1999;SDS011;1001;48.87406500;9.59633600;2022-08-18T04:00:12;10.10;;;9.13;;
1999;SDS011;1001;48.87406500;9.59633600;2022-08-18T04:02:39;10.83;;;9.83;;
1999;SDS011;1001;48.87406500;9.59633600;2022-08-18T04:05:06;9.37;;;8.57;;
1999;SDS011;1001;48.87406500;9.59633600;2022-08-18T04:07:35;8.97;;;8.03;;
1999;SDS011;1001;48.87406500;9.59633600;2022-08-18T04:10:02;9.03;;;8.23;;
1999;SDS011;1001;48.87406500;9.59633600;2022-08-18T04:12:30;10.40;;;9.50;;
1999;SDS011;1001;48.87406500;9.59633600;2022-08-18T04:14:57;10.47;;;8.40;;
1999;SDS011;1001;48.87406500;9.59633600;2022-08-18T04:17:23;10.33;;;9.23;;
1999;SDS011;1001;48.87406500;9.59633600;2022-08-18T04:19:50;10.83;;;9.80;;
1999;SDS011;1001;48.87406500;9.59633600;2022-08-18T04:22:17;9.90;;;9.00;;
1999;SDS011;1001;48.87406500;9.59633600;2022-08-18T04:24:44;10.57;;;9.47;;
1999;SDS011;1001;48.87406500;9.59633600;2022-08-18T04:27:12;11.60;;;10.53;;
1999;SDS011;1001;48.87406500;9.59633600;2022-08-18T04:29:40;11.07;;;9.97;;
1999;SDS011;1001;48.87406500;9.59633600;2022-08-18T04:32:07;14.00;;;11.53;;
1999;SDS011;1001;48.87406500;9.59633600;2022-08-18T04:34:34;13.83;;;12.37;;
1999;SDS011;1001;48.87406500;9.59633600;2022-08-18T04:37:00;15.10;;;13.60;;
1999;SDS011;1001;48.87406500;9.59633600;2022-08-18T04:39:27;15.50;;;13.87;;
1999;SDS011;1001;48.87406500;9.59633600;2022-08-18T04:41:54;15.17;;;13.63;;
1999;SDS011;1001;48.87406500;9.59633600;2022-08-18T04:44:23;17.23;;;14.53;;
1999;SDS011;1001;48.87406500;9.59633600;2022-08-18T04:46:52;15.17;;;13.67;;
1999;SDS011;1001;48.87406500;9.59633600;2022-08-18T04:49:20;15.70;;;14.20;;
1999;SDS011;1001;48.87406500;9.59633600;2022-08-18T04:51:50;12.20;;;11.00;;
1999;SDS011;1001;48.87406500;9.59633600;2022-08-18T04:54:31;13.30;;;12.10;;
1999;SDS011;1001;48.87406500;9.59633600;2022-08-18T04:57:05;12.73;;;11.53;;
1999;SDS011;1001;48.87406500;9.59633600;2022-08-18T04:59:33;19.57;;;15.60;;
1999;SDS011;1001;48.87406500;9.59633600;2022-08-18T05:02:01;17.63;;;15.77;;
1999;SDS011;1001;48.87406500;9.59633600;2022-08-18T05:04:29;16.60;;;14.90;;
1999;SDS011;1001;48.87406500;9.59633600;2022-08-18T05:06:56;17.53;;;15.63;;
1999;SDS011;1001;48.87406500;9.59633600;2022-08-18T05:09:23;15.57;;;14.03;;
1999;SDS011;1001;48.87406500;9.59633600;2022-08-18T05:11:49;17.73;;;15.20;;
1999;SDS011;1001;48.87406500;9.59633600;2022-08-18T05:14:16;18.20;;;15.10;;
1999;SDS011;1001;48.87406500;9.59633600;2022-08-18T05:16:44;19.20;;;15.40;;
1999;SDS011;1001;48.87406500;9.59633600;2022-08-18T05:19:12;15.40;;;13.80;;
1999;SDS011;1001;48.87406500;9.59633600;2022-08-18T05:21:39;14.73;;;13.30;;
1999;SDS011;1001;48.87406500;9.59633600;2022-08-18T05:24:06;14.53;;;12.77;;
1999;SDS011;1001;48.87406500;9.59633600;2022-08-18T05:26:34;12.50;;;11.30;;
1999;SDS011;1001;48.87406500;9.59633600;2022-08-18T05:29:01;11.93;;;10.77;;
1999;SDS011;1001;48.87406500;9.59633600;2022-08-18T05:31:28;12.70;;;11.40;;
1999;SDS011;1001;48.87406500;9.59633600;2022-08-18T05:33:57;15.30;;;12.80;;
1999;SDS011;1001;48.87406500;9.59633600;2022-08-18T05:36:34;16.10;;;14.23;;
1999;SDS011;1001;48.87406500;9.59633600;2022-08-18T05:39:17;15.80;;;14.30;;
1999;SDS011;1001;48.87406500;9.59633600;2022-08-18T05:41:49;16.23;;;14.40;;
1999;SDS011;1001;48.87406500;9.59633600;2022-08-18T05:44:19;14.53;;;13.23;;
1999;SDS011;1001;48.87406500;9.59633600;2022-08-18T05:46:50;16.17;;;13.90;;
1999;SDS011;1001;48.87406500;9.59633600;2022-08-18T05:49:19;15.73;;;14.27;;
1999;SDS011;1001;48.87406500;9.59633600;2022-08-18T05:51:49;12.50;;;11.30;;
1999;SDS011;1001;48.87406500;9.59633600;2022-08-18T05:54:18;11.50;;;10.50;;
1999;SDS011;1001;48.87406500;9.59633600;2022-08-18T05:57:05;12.37;;;11.20;;
1999;SDS011;1001;48.87406500;9.59633600;2022-08-18T05:59:36;12.70;;;11.50;;
1999;SDS011;1001;48.87406500;9.59633600;2022-08-18T06:02:09;14.17;;;11.50;;
1999;SDS011;1001;48.87406500;9.59633600;2022-08-18T06:04:42;12.80;;;11.50;;
1999;SDS011;1001;48.87406500;9.59633600;2022-08-18T06:07:15;13.67;;;12.30;;
1999;SDS011;1001;48.87406500;9.59633600;2022-08-18T06:09:46;12.60;;;11.40;;
1999;SDS011;1001;48.87406500;9.59633600;2022-08-18T06:12:19;14.43;;;13.00;;
1999;SDS011;1001;48.87406500;9.59633600;2022-08-18T06:14:51;12.80;;;11.50;;
1999;SDS011;1001;48.87406500;9.59633600;2022-08-18T06:20:17;13.13;;;11.80;;
1999;SDS011;1001;48.87406500;9.59633600;2022-08-18T06:22:54;13.10;;;11.80;;
1999;SDS011;1001;48.87406500;9.59633600;2022-08-18T06:25:29;11.57;;;10.53;;
1999;SDS011;1001;48.87406500;9.59633600;2022-08-18T06:28:02;15.20;;;10.27;;
1999;SDS011;1001;48.87406500;9.59633600;2022-08-18T06:30:39;11.90;;;10.90;;
1999;SDS011;1001;48.87406500;9.59633600;2022-08-18T06:33:17;12.97;;;11.80;;
1999;SDS011;1001;48.87406500;9.59633600;2022-08-18T06:36:01;12.43;;;11.27;;
1999;SDS011;1001;48.87406500;9.59633600;2022-08-18T06:38:37;12.03;;;10.90;;
1999;SDS011;1001;48.87406500;9.59633600;2022-08-18T06:41:15;12.87;;;11.57;;
1999;SDS011;1001;48.87406500;9.59633600;2022-08-18T06:43:49;10.60;;;9.60;;
1999;SDS011;1001;48.87406500;9.59633600;2022-08-18T06:46:26;10.50;;;9.50;;
1999;SDS011;1001;48.87406500;9.59633600;2022-08-18T06:49:05;10.70;;;9.80;;
1999;SDS011;1001;48.87406500;9.59633600;2022-08-18T06:51:34;9.50;;;8.67;;
1999;SDS011;1001;48.87406500;9.59633600;2022-08-18T06:54:03;9.50;;;8.40;;
1999;SDS011;1001;48.87406500;9.59633600;2022-08-18T06:56:34;9.63;;;8.83;;
1999;SDS011;1001;48.87406500;9.59633600;2022-08-18T06:59:12;10.70;;;9.63;;
1999;SDS011;1001;48.87406500;9.59633600;2022-08-18T07:01:44;10.00;;;9.00;;
1999;SDS011;1001;48.87406500;9.59633600;2022-08-18T07:04:29;13.00;;;9.63;;
1999;SDS011;1001;48.87406500;9.59633600;2022-08-18T07:06:58;9.63;;;8.83;;
1999;SDS011;1001;48.87406500;9.59633600;2022-08-18T07:09:42;10.40;;;9.50;;
1999;SDS011;1001;48.87406500;9.59633600;2022-08-18T07:12:10;11.43;;;10.43;;
1999;SDS011;1001;48.87406500;9.59633600;2022-08-18T07:14:45;9.93;;;9.00;;
1999;SDS011;1001;48.87406500;9.59633600;2022-08-18T07:17:18;10.00;;;8.97;;
1999;SDS011;1001;48.87406500;9.59633600;2022-08-18T07:19:53;11.03;;;10.00;;
1999;SDS011;1001;48.87406500;9.59633600;2022-08-18T07:22:24;10.93;;;10.03;;
1999;SDS011;1001;48.87406500;9.59633600;2022-08-18T07:24:54;9.80;;;8.90;;
1999;SDS011;1001;48.87406500;9.59633600;2022-08-18T07:27:38;10.00;;;9.00;;
1999;SDS011;1001;48.87406500;9.59633600;2022-08-18T07:30:14;10.17;;;9.27;;
1999;SDS011;1001;48.87406500;9.59633600;2022-08-18T07:32:52;11.97;;;10.33;;
1999;SDS011;1001;48.87406500;9.59633600;2022-08-18T07:35:24;9.80;;;8.90;;
1999;SDS011;1001;48.87406500;9.59633600;2022-08-18T07:37:56;10.80;;;9.70;;
1999;SDS011;1001;48.87406500;9.59633600;2022-08-18T07:40:30;10.23;;;9.33;;
1999;SDS011;1001;48.87406500;9.59633600;2022-08-18T07:43:01;9.70;;;8.90;;
1999;SDS011;1001;48.87406500;9.59633600;2022-08-18T07:45:32;10.50;;;9.20;;
1999;SDS011;1001;48.87406500;9.59633600;2022-08-18T07:48:06;9.17;;;8.37;;
1999;SDS011;1001;48.87406500;9.59633600;2022-08-18T07:50:38;12.57;;;10.80;;
1999;SDS011;1001;48.87406500;9.59633600;2022-08-18T07:53:14;10.73;;;9.73;;
1999;SDS011;1001;48.87406500;9.59633600;2022-08-18T07:55:52;11.07;;;10.07;;
1999;SDS011;1001;48.87406500;9.59633600;2022-08-18T07:58:26;10.87;;;9.90;;
1999;SDS011;1001;48.87406500;9.59633600;2022-08-18T08:01:00;10.10;;;9.10;;
1999;SDS011;1001;48.87406500;9.59633600;2022-08-18T08:03:35;10.23;;;9.07;;
1999;SDS011;1001;48.87406500;9.59633600;2022-08-18T08:06:11;12.00;;;10.90;;
1999;SDS011;1001;48.87406500;9.59633600;2022-08-18T08:08:46;12.13;;;11.03;;
1999;SDS011;1001;48.87406500;9.59633600;2022-08-18T08:11:34;13.07;;;11.73;;
1999;SDS011;1001;48.87406500;9.59633600;2022-08-18T08:14:14;14.37;;;12.87;;
1999;SDS011;1001;48.87406500;9.59633600;2022-08-18T08:16:55;14.47;;;13.17;;
1999;SDS011;1001;48.87406500;9.59633600;2022-08-18T08:19:34;15.27;;;12.57;;
1999;SDS011;1001;48.87406500;9.59633600;2022-08-18T08:22:15;14.20;;;12.80;;
1999;SDS011;1001;48.87406500;9.59633600;2022-08-18T08:24:48;13.93;;;12.63;;
1999;SDS011;1001;48.87406500;9.59633600;2022-08-18T08:27:34;14.23;;;12.00;;
1999;SDS011;1001;48.87406500;9.59633600;2022-08-18T08:30:14;17.27;;;13.37;;
1999;SDS011;1001;48.87406500;9.59633600;2022-08-18T08:32:47;12.97;;;11.57;;
1999;SDS011;1001;48.87406500;9.59633600;2022-08-18T08:35:26;14.17;;;12.80;;
1999;SDS011;1001;48.87406500;9.59633600;2022-08-18T08:38:05;15.27;;;13.87;;
1999;SDS011;1001;48.87406500;9.59633600;2022-08-18T08:40:39;14.60;;;13.03;;
1999;SDS011;1001;48.87406500;9.59633600;2022-08-18T08:43:15;13.17;;;11.73;;
1999;SDS011;1001;48.87406500;9.59633600;2022-08-18T08:45:46;12.80;;;11.57;;
1999;SDS011;1001;48.87406500;9.59633600;2022-08-18T08:48:30;13.00;;;11.80;;
1999;SDS011;1001;48.87406500;9.59633600;2022-08-18T08:51:02;14.10;;;11.27;;
1999;SDS011;1001;48.87406500;9.59633600;2022-08-18T08:53:37;14.40;;;12.47;;
1999;SDS011;1001;48.87406500;9.59633600;2022-08-18T08:56:09;16.33;;;12.80;;
1999;SDS011;1001;48.87406500;9.59633600;2022-08-18T08:58:41;14.40;;;12.07;;
1999;SDS011;1001;48.87406500;9.59633600;2022-08-18T09:01:19;14.53;;;13.03;;
1999;SDS011;1001;48.87406500;9.59633600;2022-08-18T09:03:58;14.03;;;12.67;;
1999;SDS011;1001;48.87406500;9.59633600;2022-08-18T09:06:36;13.27;;;11.97;;
1999;SDS011;1001;48.87406500;9.59633600;2022-08-18T09:09:16;13.17;;;11.77;;
1999;SDS011;1001;48.87406500;9.59633600;2022-08-18T09:12:17;12.17;;;11.17;;
1999;SDS011;1001;48.87406500;9.59633600;2022-08-18T09:18:20;13.90;;;12.50;;
1999;SDS011;1001;48.87406500;9.59633600;2022-08-18T09:20:58;11.23;;;10.17;;
1999;SDS011;1001;48.87406500;9.59633600;2022-08-18T09:23:31;12.30;;;11.10;;
1999;SDS011;1001;48.87406500;9.59633600;2022-08-18T09:28:54;12.20;;;10.90;;
1999;SDS011;1001;48.87406500;9.59633600;2022-08-18T09:31:25;12.43;;;11.27;;
1999;SDS011;1001;48.87406500;9.59633600;2022-08-18T09:34:06;12.17;;;11.07;;
1999;SDS011;1001;48.87406500;9.59633600;2022-08-18T09:39:41;14.13;;;12.30;;
1999;SDS011;1001;48.87406500;9.59633600;2022-08-18T09:42:33;12.17;;;11.00;;
1999;SDS011;1001;48.87406500;9.59633600;2022-08-18T09:45:05;11.83;;;10.80;;
1999;SDS011;1001;48.87406500;9.59633600;2022-08-18T09:50:55;12.90;;;11.60;;
1999;SDS011;1001;48.87406500;9.59633600;2022-08-18T09:59:55;11.73;;;10.73;;
1999;SDS011;1001;48.87406500;9.59633600;2022-08-18T10:05:29;12.03;;;10.83;;
1999;SDS011;1001;48.87406500;9.59633600;2022-08-18T10:08:23;11.53;;;10.40;;
1999;SDS011;1001;48.87406500;9.59633600;2022-08-18T10:11:14;11.90;;;10.60;;
1999;SDS011;1001;48.87406500;9.59633600;2022-08-18T10:14:03;11.00;;;9.90;;
1999;SDS011;1001;48.87406500;9.59633600;2022-08-18T10:16:45;11.60;;;10.10;;
1999;SDS011;1001;48.87406500;9.59633600;2022-08-18T10:19:25;11.87;;;10.60;;
1999;SDS011;1001;48.87406500;9.59633600;2022-08-18T10:22:02;11.67;;;10.57;;
1999;SDS011;1001;48.87406500;9.59633600;2022-08-18T10:24:32;12.10;;;11.00;;
1999;SDS011;1001;48.87406500;9.59633600;2022-08-18T10:27:02;11.73;;;10.40;;
1999;SDS011;1001;48.87406500;9.59633600;2022-08-18T10:29:44;12.67;;;11.30;;
1999;SDS011;1001;48.87406500;9.59633600;2022-08-18T10:32:16;12.73;;;11.10;;
1999;SDS011;1001;48.87406500;9.59633600;2022-08-18T10:35:04;10.90;;;10.00;;
1999;SDS011;1001;48.87406500;9.59633600;2022-08-18T10:37:53;13.20;;;11.87;;
1999;SDS011;1001;48.87406500;9.59633600;2022-08-18T10:40:22;12.83;;;11.23;;
1999;SDS011;1001;48.87406500;9.59633600;2022-08-18T10:42:51;14.43;;;12.97;;
1999;SDS011;1001;48.87406500;9.59633600;2022-08-18T10:45:25;12.97;;;11.87;;
1999;SDS011;1001;48.87406500;9.59633600;2022-08-18T10:47:58;12.90;;;11.60;;
1999;SDS011;1001;48.87406500;9.59633600;2022-08-18T10:50:40;10.70;;;9.73;;
1999;SDS011;1001;48.87406500;9.59633600;2022-08-18T10:53:15;14.33;;;13.00;;
1999;SDS011;1001;48.87406500;9.59633600;2022-08-18T10:55:47;12.70;;;11.50;;
1999;SDS011;1001;48.87406500;9.59633600;2022-08-18T10:58:26;12.40;;;11.30;;
1999;SDS011;1001;48.87406500;9.59633600;2022-08-18T11:01:10;13.83;;;12.57;;
1999;SDS011;1001;48.87406500;9.59633600;2022-08-18T11:04:02;14.17;;;12.90;;
1999;SDS011;1001;48.87406500;9.59633600;2022-08-18T11:06:35;14.87;;;13.27;;
1999;SDS011;1001;48.87406500;9.59633600;2022-08-18T11:09:08;13.00;;;11.90;;
1999;SDS011;1001;48.87406500;9.59633600;2022-08-18T11:11:37;13.27;;;11.97;;
1999;SDS011;1001;48.87406500;9.59633600;2022-08-18T11:14:14;13.23;;;12.03;;
1999;SDS011;1001;48.87406500;9.59633600;2022-08-18T11:16:58;10.07;;;9.20;;
1999;SDS011;1001;48.87406500;9.59633600;2022-08-18T11:19:34;9.30;;;8.50;;
1999;SDS011;1001;48.87406500;9.59633600;2022-08-18T11:22:03;10.57;;;9.60;;
1999;SDS011;1001;48.87406500;9.59633600;2022-08-18T11:24:32;13.67;;;12.40;;
1999;SDS011;1001;48.87406500;9.59633600;2022-08-18T11:27:00;13.10;;;11.90;;
1999;SDS011;1001;48.87406500;9.59633600;2022-08-18T11:29:29;11.00;;;10.00;;
1999;SDS011;1001;48.87406500;9.59633600;2022-08-18T11:31:59;11.00;;;10.00;;
1999;SDS011;1001;48.87406500;9.59633600;2022-08-18T11:34:34;10.63;;;9.60;;
1999;SDS011;1001;48.87406500;9.59633600;2022-08-18T11:37:03;9.60;;;8.80;;
1999;SDS011;1001;48.87406500;9.59633600;2022-08-18T11:39:40;12.23;;;11.20;;
1999;SDS011;1001;48.87406500;9.59633600;2022-08-18T11:42:08;9.07;;;8.27;;
1999;SDS011;1001;48.87406500;9.59633600;2022-08-18T11:44:35;10.13;;;9.33;;
1999;SDS011;1001;48.87406500;9.59633600;2022-08-18T11:47:08;9.47;;;8.77;;
1999;SDS011;1001;48.87406500;9.59633600;2022-08-18T11:49:44;10.90;;;8.47;;
1999;SDS011;1001;48.87406500;9.59633600;2022-08-18T11:52:19;8.90;;;8.10;;
1999;SDS011;1001;48.87406500;9.59633600;2022-08-18T11:54:51;8.70;;;7.90;;
1999;SDS011;1001;48.87406500;9.59633600;2022-08-18T11:57:37;8.30;;;7.60;;
1999;SDS011;1001;48.87406500;9.59633600;2022-08-18T12:03:21;8.67;;;7.90;;
1999;SDS011;1001;48.87406500;9.59633600;2022-08-18T12:05:58;8.40;;;7.60;;
1999;SDS011;1001;48.87406500;9.59633600;2022-08-18T12:08:35;7.93;;;7.30;;
1999;SDS011;1001;48.87406500;9.59633600;2022-08-18T12:11:15;8.17;;;7.37;;
1999;SDS011;1001;48.87406500;9.59633600;2022-08-18T12:13:44;8.40;;;7.70;;
1999;SDS011;1001;48.87406500;9.59633600;2022-08-18T12:16:13;7.77;;;7.17;;
1999;SDS011;1001;48.87406500;9.59633600;2022-08-18T12:18:43;7.40;;;6.80;;
1999;SDS011;1001;48.87406500;9.59633600;2022-08-18T12:21:10;8.20;;;7.50;;
1999;SDS011;1001;48.87406500;9.59633600;2022-08-18T12:23:38;8.30;;;7.60;;
1999;SDS011;1001;48.87406500;9.59633600;2022-08-18T12:26:07;7.90;;;7.30;;
1999;SDS011;1001;48.87406500;9.59633600;2022-08-18T12:28:35;8.40;;;7.70;;
1999;SDS011;1001;48.87406500;9.59633600;2022-08-18T12:31:03;8.57;;;7.23;;
1999;SDS011;1001;48.87406500;9.59633600;2022-08-18T12:33:30;9.03;;;8.13;;
1999;SDS011;1001;48.87406500;9.59633600;2022-08-18T12:35:57;7.87;;;7.17;;
1999;SDS011;1001;48.87406500;9.59633600;2022-08-18T12:38:24;7.57;;;7.07;;
1999;SDS011;1001;48.87406500;9.59633600;2022-08-18T12:40:51;7.73;;;7.00;;
1999;SDS011;1001;48.87406500;9.59633600;2022-08-18T12:43:18;8.83;;;8.03;;
1999;SDS011;1001;48.87406500;9.59633600;2022-08-18T12:45:46;7.30;;;6.70;;
1999;SDS011;1001;48.87406500;9.59633600;2022-08-18T12:48:13;8.47;;;7.70;;
1999;SDS011;1001;48.87406500;9.59633600;2022-08-18T12:50:39;9.20;;;8.37;;
1999;SDS011;1001;48.87406500;9.59633600;2022-08-18T12:53:07;7.93;;;7.30;;
1999;SDS011;1001;48.87406500;9.59633600;2022-08-18T12:55:34;8.87;;;8.07;;
1999;SDS011;1001;48.87406500;9.59633600;2022-08-18T12:58:06;8.50;;;7.60;;
1999;SDS011;1001;48.87406500;9.59633600;2022-08-18T13:00:33;7.07;;;6.43;;
1999;SDS011;1001;48.87406500;9.59633600;2022-08-18T13:03:01;8.00;;;7.30;;
1999;SDS011;1001;48.87406500;9.59633600;2022-08-18T13:05:28;8.57;;;7.77;;
1999;SDS011;1001;48.87406500;9.59633600;2022-08-18T13:07:55;8.00;;;7.27;;
1999;SDS011;1001;48.87406500;9.59633600;2022-08-18T13:10:24;7.20;;;6.60;;
1999;SDS011;1001;48.87406500;9.59633600;2022-08-18T13:12:50;7.53;;;6.73;;
1999;SDS011;1001;48.87406500;9.59633600;2022-08-18T13:15:17;7.13;;;6.53;;
1999;SDS011;1001;48.87406500;9.59633600;2022-08-18T13:17:44;7.80;;;7.20;;
1999;SDS011;1001;48.87406500;9.59633600;2022-08-18T13:20:12;8.50;;;7.80;;
1999;SDS011;1001;48.87406500;9.59633600;2022-08-18T13:22:40;8.90;;;8.20;;
1999;SDS011;1001;48.87406500;9.59633600;2022-08-18T13:25:08;6.63;;;6.13;;
1999;SDS011;1001;48.87406500;9.59633600;2022-08-18T13:27:37;6.73;;;6.23;;
1999;SDS011;1001;48.87406500;9.59633600;2022-08-18T13:30:06;7.20;;;6.60;;
1999;SDS011;1001;48.87406500;9.59633600;2022-08-18T13:32:34;7.50;;;6.80;;
1999;SDS011;1001;48.87406500;9.59633600;2022-08-18T13:35:01;8.10;;;7.40;;
1999;SDS011;1001;48.87406500;9.59633600;2022-08-18T13:37:29;7.60;;;6.90;;
1999;SDS011;1001;48.87406500;9.59633600;2022-08-18T13:39:57;10.33;;;6.00;;
1999;SDS011;1001;48.87406500;9.59633600;2022-08-18T13:42:24;8.67;;;6.23;;
1999;SDS011;1001;48.87406500;9.59633600;2022-08-18T13:44:52;7.50;;;6.90;;
1999;SDS011;1001;48.87406500;9.59633600;2022-08-18T13:47:19;8.30;;;7.40;;